Terminal Aerodrome Forecast
Issued by NWS Cleveland, OH

Home | Current Version | Previous Version | Text Only | Print | Product List | Glossary On
Versions: 1 2 3 4 5 6 7 8 9 10 11 12 13 14 15
000
FTUS41 KCLE 171200 AAA
TAFCAK
TAF AMD
KCAK 171259Z 1713/1812 28005KT P6SM OVC007
     FM171400 28005KT P6SM OVC015
     FM171800 29008KT P6SM BKN025
     FM172000 31006KT P6SM SCT030
     FM180000 VRB03KT P6SM SKC=

USA.gov is the U.S. government's official web portal to all federal, state and local government web resources and services.